sensor_id;sensor_type;location;lat;lon;timestamp;pressure;altitude;pressure_sealevel;temperature;humidity
79463;BME280;68931;47.286;18.756;2023-04-28T00:00:00;101257.25;;;2.16;79.28
79463;BME280;68931;47.286;18.756;2023-04-28T00:00:31;101250.38;;;2.12;79.29
79463;BME280;68931;47.286;18.756;2023-04-28T00:01:02;101259.84;;;2.16;79.30
79463;BME280;68931;47.286;18.756;2023-04-28T00:01:33;101254.75;;;2.10;78.95
79463;BME280;68931;47.286;18.756;2023-04-28T00:02:04;101252.19;;;2.07;79.21
79463;BME280;68931;47.286;18.756;2023-04-28T00:02:34;101221.34;;;1.87;79.04
79463;BME280;68931;47.286;18.756;2023-04-28T00:03:05;101254.84;;;2.01;79.61
79463;BME280;68931;47.286;18.756;2023-04-28T00:03:36;101229.19;;;1.77;80.09
79463;BME280;68931;47.286;18.756;2023-04-28T00:04:06;101242.94;;;1.83;80.68
79463;BME280;68931;47.286;18.756;2023-04-28T00:04:37;101255.75;;;1.96;80.73
79463;BME280;68931;47.286;18.756;2023-04-28T00:05:08;101247.97;;;1.96;80.57
79463;BME280;68931;47.286;18.756;2023-04-28T00:05:39;101250.53;;;2.00;80.84
79463;BME280;68931;47.286;18.756;2023-04-28T00:06:10;101244.53;;;1.97;80.55
79463;BME280;68931;47.286;18.756;2023-04-28T00:06:42;101246.22;;;2.02;80.18
79463;BME280;68931;47.286;18.756;2023-04-28T00:07:13;101248.81;;;2.01;80.12
79463;BME280;68931;47.286;18.756;2023-04-28T00:07:44;101246.22;;;2.02;80.33
79463;BME280;68931;47.286;18.756;2023-04-28T00:08:14;101243.63;;;2.01;80.47
79463;BME280;68931;47.286;18.756;2023-04-28T00:08:48;101247.00;;;2.06;79.85
79463;BME280;68931;47.286;18.756;2023-04-28T00:09:24;101249.59;;;2.07;79.83
79463;BME280;68931;47.286;18.756;2023-04-28T00:09:55;101247.88;;;2.08;79.68
79463;BME280;68931;47.286;18.756;2023-04-28T00:10:26;101247.88;;;2.06;79.77
79463;BME280;68931;47.286;18.756;2023-04-28T00:10:57;101244.44;;;2.06;79.69
79463;BME280;68931;47.286;18.756;2023-04-28T00:11:33;101241.91;;;2.01;79.02
79463;BME280;68931;47.286;18.756;2023-04-28T00:12:04;101243.72;;;1.92;79.14
79463;BME280;68931;47.286;18.756;2023-04-28T00:12:35;101247.25;;;1.84;79.37
79463;BME280;68931;47.286;18.756;2023-04-28T00:13:06;101223.28;;;1.64;80.39
79463;BME280;68931;47.286;18.756;2023-04-28T00:13:37;101246.44;;;1.78;80.73
79463;BME280;68931;47.286;18.756;2023-04-28T00:14:07;101247.34;;;1.72;80.62
79463;BME280;68931;47.286;18.756;2023-04-28T00:14:38;101255.97;;;1.73;81.45
79463;BME280;68931;47.286;18.756;2023-04-28T00:15:10;101259.53;;;1.60;81.43
79463;BME280;68931;47.286;18.756;2023-04-28T00:15:43;101259.66;;;1.46;81.23
79463;BME280;68931;47.286;18.756;2023-04-28T00:16:14;101262.25;;;1.44;81.98
79463;BME280;68931;47.286;18.756;2023-04-28T00:16:45;101257.06;;;1.47;82.34
79463;BME280;68931;47.286;18.756;2023-04-28T00:17:16;101251.88;;;1.49;82.00
79463;BME280;68931;47.286;18.756;2023-04-28T00:17:46;101263.84;;;1.59;81.76
79463;BME280;68931;47.286;18.756;2023-04-28T00:18:23;101275.03;;;1.60;81.89
79463;BME280;68931;47.286;18.756;2023-04-28T00:18:54;101253.56;;;1.51;81.67
79463;BME280;68931;47.286;18.756;2023-04-28T00:19:29;101264.75;;;1.57;81.69
79463;BME280;68931;47.286;18.756;2023-04-28T00:19:59;101269.00;;;1.61;81.61
79463;BME280;68931;47.286;18.756;2023-04-28T00:20:30;101263.03;;;1.56;81.59
79463;BME280;68931;47.286;18.756;2023-04-28T00:21:01;101262.16;;;1.55;81.94
79463;BME280;68931;47.286;18.756;2023-04-28T00:21:31;101247.50;;;1.54;81.47
79463;BME280;68931;47.286;18.756;2023-04-28T00:22:02;101258.66;;;1.59;81.93
79463;BME280;68931;47.286;18.756;2023-04-28T00:22:34;101261.31;;;1.53;81.46
79463;BME280;68931;47.286;18.756;2023-04-28T00:23:05;101257.84;;;1.54;82.24
79463;BME280;68931;47.286;18.756;2023-04-28T00:23:35;101250.97;;;1.51;81.85
79463;BME280;68931;47.286;18.756;2023-04-28T00:24:09;101260.44;;;1.52;82.59
79463;BME280;68931;47.286;18.756;2023-04-28T00:24:43;101224.41;;;1.36;81.57
79463;BME280;68931;47.286;18.756;2023-04-28T00:25:14;101244.06;;;1.52;81.56
79463;BME280;68931;47.286;18.756;2023-04-28T00:25:50;101245.78;;;1.58;81.87
79463;BME280;68931;47.286;18.756;2023-04-28T00:26:21;101243.13;;;1.61;82.20
79463;BME280;68931;47.286;18.756;2023-04-28T00:26:52;101249.16;;;1.63;82.10
79463;BME280;68931;47.286;18.756;2023-04-28T00:27:22;101250.81;;;1.68;82.20
79463;BME280;68931;47.286;18.756;2023-04-28T00:27:53;101245.63;;;1.71;81.92
79463;BME280;68931;47.286;18.756;2023-04-28T00:28:27;101249.09;;;1.72;82.22
79463;BME280;68931;47.286;18.756;2023-04-28T00:28:58;101252.50;;;1.75;81.87
79463;BME280;68931;47.286;18.756;2023-04-28T00:29:28;101251.66;;;1.75;82.00
79463;BME280;68931;47.286;18.756;2023-04-28T00:30:02;101247.38;;;1.71;81.75
79463;BME280;68931;47.286;18.756;2023-04-28T00:30:36;101244.75;;;1.74;81.82
79463;BME280;68931;47.286;18.756;2023-04-28T00:31:11;101202.75;;;1.49;81.59
79463;BME280;68931;47.286;18.756;2023-04-28T00:31:43;101249.00;;;1.79;81.70
79463;BME280;68931;47.286;18.756;2023-04-28T00:32:14;101230.97;;;1.73;81.08
79463;BME280;68931;47.286;18.756;2023-04-28T00:32:45;101246.44;;;1.78;81.10
79463;BME280;68931;47.286;18.756;2023-04-28T00:33:18;101239.59;;;1.74;81.50
79463;BME280;68931;47.286;18.756;2023-04-28T00:33:48;101250.72;;;1.82;80.99
79463;BME280;68931;47.286;18.756;2023-04-28T00:34:19;101239.56;;;1.75;81.33
79463;BME280;68931;47.286;18.756;2023-04-28T00:34:50;101227.53;;;1.70;81.26
79463;BME280;68931;47.286;18.756;2023-04-28T00:35:22;101245.59;;;1.76;81.21
79463;BME280;68931;47.286;18.756;2023-04-28T00:35:59;101240.53;;;1.67;80.43
79463;BME280;68931;47.286;18.756;2023-04-28T00:36:30;101252.59;;;1.65;80.47
79463;BME280;68931;47.286;18.756;2023-04-28T00:37:02;101233.72;;;1.57;80.81
79463;BME280;68931;47.286;18.756;2023-04-28T00:37:37;101244.84;;;1.66;80.90
79463;BME280;68931;47.286;18.756;2023-04-28T00:38:08;101249.16;;;1.66;81.18
79463;BME280;68931;47.286;18.756;2023-04-28T00:38:39;101251.75;;;1.64;80.96
79463;BME280;68931;47.286;18.756;2023-04-28T00:39:15;101249.16;;;1.61;81.11
79463;BME280;68931;47.286;18.756;2023-04-28T00:39:47;101249.97;;;1.68;81.39
79463;BME280;68931;47.286;18.756;2023-04-28T00:40:18;101244.84;;;1.66;81.62
79463;BME280;68931;47.286;18.756;2023-04-28T00:40:49;101256.84;;;1.72;81.57
79463;BME280;68931;47.286;18.756;2023-04-28T00:41:20;101236.16;;;1.69;81.53
79463;BME280;68931;47.286;18.756;2023-04-28T00:41:51;101244.78;;;1.72;81.49
79463;BME280;68931;47.286;18.756;2023-04-28T00:42:22;101249.06;;;1.75;81.47
79463;BME280;68931;47.286;18.756;2023-04-28T00:42:53;101253.31;;;1.77;82.40
79463;BME280;68931;47.286;18.756;2023-04-28T00:43:26;101251.66;;;1.75;82.06
79463;BME280;68931;47.286;18.756;2023-04-28T00:43:57;101251.59;;;1.81;81.85
79463;BME280;68931;47.286;18.756;2023-04-28T00:44:27;101249.00;;;1.81;81.71
79463;BME280;68931;47.286;18.756;2023-04-28T00:44:58;101255.03;;;1.80;81.61
79463;BME280;68931;47.286;18.756;2023-04-28T00:45:35;101255.03;;;1.81;81.20
79463;BME280;68931;47.286;18.756;2023-04-28T00:46:05;101235.28;;;1.73;81.19
79463;BME280;68931;47.286;18.756;2023-04-28T00:46:36;101254.16;;;1.81;81.26
79463;BME280;68931;47.286;18.756;2023-04-28T00:47:08;101252.44;;;1.80;81.14
79463;BME280;68931;47.286;18.756;2023-04-28T00:47:41;101253.31;;;1.82;80.86
79463;BME280;68931;47.286;18.756;2023-04-28T00:48:14;101250.75;;;1.77;81.11
79463;BME280;68931;47.286;18.756;2023-04-28T00:48:45;101237.84;;;1.76;80.74
79463;BME280;68931;47.286;18.756;2023-04-28T00:49:15;101255.03;;;1.83;81.02
79463;BME280;68931;47.286;18.756;2023-04-28T00:49:47;101252.44;;;1.81;80.96
79463;BME280;68931;47.286;18.756;2023-04-28T00:50:19;101251.59;;;1.79;81.43
79463;BME280;68931;47.286;18.756;2023-04-28T00:50:52;101255.00;;;1.84;80.79
79463;BME280;68931;47.286;18.756;2023-04-28T00:51:28;101262.72;;;1.86;80.87
79463;BME280;68931;47.286;18.756;2023-04-28T00:52:03;101251.50;;;1.87;80.93
79463;BME280;68931;47.286;18.756;2023-04-28T00:52:35;101257.63;;;1.81;80.98
79463;BME280;68931;47.286;18.756;2023-04-28T00:53:06;101252.44;;;1.80;81.02
79463;BME280;68931;47.286;18.756;2023-04-28T00:53:40;101248.16;;;1.79;81.08
79463;BME280;68931;47.286;18.756;2023-04-28T00:54:13;101221.59;;;1.59;80.74
79463;BME280;68931;47.286;18.756;2023-04-28T00:54:47;101251.59;;;1.79;80.77
79463;BME280;68931;47.286;18.756;2023-04-28T00:55:19;101255.03;;;1.78;80.68
79463;BME280;68931;47.286;18.756;2023-04-28T00:55:52;101240.44;;;1.73;80.85
79463;BME280;68931;47.286;18.756;2023-04-28T00:56:24;101255.91;;;1.77;80.30
79463;BME280;68931;47.286;18.756;2023-04-28T00:56:57;101255.91;;;1.77;80.66
79463;BME280;68931;47.286;18.756;2023-04-28T00:57:33;101260.22;;;1.80;80.81
79463;BME280;68931;47.286;18.756;2023-04-28T00:58:06;101246.50;;;1.70;80.77
79463;BME280;68931;47.286;18.756;2023-04-28T00:58:37;101257.63;;;1.80;81.06
79463;BME280;68931;47.286;18.756;2023-04-28T00:59:08;101259.34;;;1.79;81.11
79463;BME280;68931;47.286;18.756;2023-04-28T00:59:39;101235.34;;;1.67;81.05
79463;BME280;68931;47.286;18.756;2023-04-28T01:00:10;101244.78;;;1.71;80.82
79463;BME280;68931;47.286;18.756;2023-04-28T01:00:41;101252.47;;;1.77;80.74
79463;BME280;68931;47.286;18.756;2023-04-28T01:01:18;101240.47;;;1.70;80.81
79463;BME280;68931;47.286;18.756;2023-04-28T01:01:48;101253.31;;;1.79;80.92
79463;BME280;68931;47.286;18.756;2023-04-28T01:02:19;101249.88;;;1.80;80.53
79463;BME280;68931;47.286;18.756;2023-04-28T01:02:51;101258.50;;;1.79;80.48
79463;BME280;68931;47.286;18.756;2023-04-28T01:03:23;101243.06;;;1.71;80.46
79463;BME280;68931;47.286;18.756;2023-04-28T01:03:53;101249.88;;;1.77;80.44
79463;BME280;68931;47.286;18.756;2023-04-28T01:04:25;101237.88;;;1.70;80.59
79463;BME280;68931;47.286;18.756;2023-04-28T01:04:59;101256.78;;;1.78;80.41
79463;BME280;68931;47.286;18.756;2023-04-28T01:05:31;101255.97;;;1.76;80.41
79463;BME280;68931;47.286;18.756;2023-04-28T01:06:04;101255.97;;;1.71;80.82
79463;BME280;68931;47.286;18.756;2023-04-28T01:06:36;101259.44;;;1.70;80.62
79463;BME280;68931;47.286;18.756;2023-04-28T01:07:10;101259.44;;;1.67;80.44
79463;BME280;68931;47.286;18.756;2023-04-28T01:07:44;101256.88;;;1.67;80.44
79463;BME280;68931;47.286;18.756;2023-04-28T01:08:15;101259.44;;;1.67;80.58
79463;BME280;68931;47.286;18.756;2023-04-28T01:08:48;101255.13;;;1.68;80.30
79463;BME280;68931;47.286;18.756;2023-04-28T01:09:23;101265.53;;;1.65;80.48
79463;BME280;68931;47.286;18.756;2023-04-28T01:09:56;101251.75;;;1.60;80.33
79463;BME280;68931;47.286;18.756;2023-04-28T01:10:26;101238.09;;;1.45;80.53
79463;BME280;68931;47.286;18.756;2023-04-28T01:11:00;101254.38;;;1.58;80.33
79463;BME280;68931;47.286;18.756;2023-04-28T01:11:31;101256.06;;;1.62;80.42
79463;BME280;68931;47.286;18.756;2023-04-28T01:12:02;101223.53;;;1.40;80.51
79463;BME280;68931;47.286;18.756;2023-04-28T01:12:32;101264.69;;;1.63;80.65
79463;BME280;68931;47.286;18.756;2023-04-28T01:13:03;101267.28;;;1.60;80.54
79463;BME280;68931;47.286;18.756;2023-04-28T01:13:34;101264.69;;;1.63;80.43
79463;BME280;68931;47.286;18.756;2023-04-28T01:14:07;101230.38;;;1.41;80.77
79463;BME280;68931;47.286;18.756;2023-04-28T01:14:38;101256.94;;;1.60;80.90
79463;BME280;68931;47.286;18.756;2023-04-28T01:15:15;101263.00;;;1.57;81.10
79463;BME280;68931;47.286;18.756;2023-04-28T01:15:47;101264.75;;;1.54;80.66
79463;BME280;68931;47.286;18.756;2023-04-28T01:16:18;101248.41;;;1.50;80.54
79463;BME280;68931;47.286;18.756;2023-04-28T01:16:57;101251.91;;;1.46;80.31
79463;BME280;68931;47.286;18.756;2023-04-28T01:17:29;101258.72;;;1.51;80.52
79463;BME280;68931;47.286;18.756;2023-04-28T01:18:02;101261.31;;;1.55;80.64
79463;BME280;68931;47.286;18.756;2023-04-28T01:18:34;101269.91;;;1.57;80.87
79463;BME280;68931;47.286;18.756;2023-04-28T01:19:07;101262.19;;;1.52;80.77
79463;BME280;68931;47.286;18.756;2023-04-28T01:19:37;101263.03;;;1.52;80.77
79463;BME280;68931;47.286;18.756;2023-04-28T01:20:09;101250.19;;;1.43;81.20
79463;BME280;68931;47.286;18.756;2023-04-28T01:20:39;101265.66;;;1.49;81.20
79463;BME280;68931;47.286;18.756;2023-04-28T01:21:10;101259.66;;;1.47;81.26
79463;BME280;68931;47.286;18.756;2023-04-28T01:21:41;101259.66;;;1.46;81.43
79463;BME280;68931;47.286;18.756;2023-04-28T01:22:11;101258.78;;;1.45;81.70
79463;BME280;68931;47.286;18.756;2023-04-28T01:22:45;101260.50;;;1.48;81.99
79463;BME280;68931;47.286;18.756;2023-04-28T01:23:16;101248.47;;;1.44;81.86
79463;BME280;68931;47.286;18.756;2023-04-28T01:23:47;101256.19;;;1.47;81.77
79463;BME280;68931;47.286;18.756;2023-04-28T01:24:18;101252.75;;;1.43;81.93
79463;BME280;68931;47.286;18.756;2023-04-28T01:24:49;101261.31;;;1.53;81.32
79463;BME280;68931;47.286;18.756;2023-04-28T01:25:20;101261.31;;;1.53;81.69
79463;BME280;68931;47.286;18.756;2023-04-28T01:25:50;101257.00;;;1.50;81.61
79463;BME280;68931;47.286;18.756;2023-04-28T01:26:21;101259.59;;;1.52;81.09
79463;BME280;68931;47.286;18.756;2023-04-28T01:26:52;101247.56;;;1.49;81.46
79463;BME280;68931;47.286;18.756;2023-04-28T01:27:22;101247.59;;;1.45;80.86
79463;BME280;68931;47.286;18.756;2023-04-28T01:27:53;101257.00;;;1.50;81.07
79463;BME280;68931;47.286;18.756;2023-04-28T01:28:24;101253.56;;;1.50;81.38
79463;BME280;68931;47.286;18.756;2023-04-28T01:28:58;101254.41;;;1.52;81.04
79463;BME280;68931;47.286;18.756;2023-04-28T01:29:29;101238.97;;;1.46;81.32
79463;BME280;68931;47.286;18.756;2023-04-28T01:30:00;101237.25;;;1.45;81.31
79463;BME280;68931;47.286;18.756;2023-04-28T01:30:36;101255.31;;;1.49;81.16
79463;BME280;68931;47.286;18.756;2023-04-28T01:31:07;101260.44;;;1.52;81.37
79463;BME280;68931;47.286;18.756;2023-04-28T01:31:38;101250.97;;;1.50;81.59
79463;BME280;68931;47.286;18.756;2023-04-28T01:32:09;101252.75;;;1.49;81.41
79463;BME280;68931;47.286;18.756;2023-04-28T01:32:42;101248.44;;;1.45;81.20
79463;BME280;68931;47.286;18.756;2023-04-28T01:33:19;101215.84;;;1.26;81.25
79463;BME280;68931;47.286;18.756;2023-04-28T01:33:49;101216.72;;;1.27;81.47
79463;BME280;68931;47.286;18.756;2023-04-28T01:34:20;101248.44;;;1.48;81.20
79463;BME280;68931;47.286;18.756;2023-04-28T01:34:51;101255.31;;;1.49;81.27
79463;BME280;68931;47.286;18.756;2023-04-28T01:35:21;101254.47;;;1.49;81.16
79463;BME280;68931;47.286;18.756;2023-04-28T01:35:56;101242.44;;;1.42;81.47
79463;BME280;68931;47.286;18.756;2023-04-28T01:36:27;101237.31;;;1.39;81.12
79463;BME280;68931;47.286;18.756;2023-04-28T01:36:58;101240.72;;;1.41;80.96
79463;BME280;68931;47.286;18.756;2023-04-28T01:37:28;101248.47;;;1.41;81.08
79463;BME280;68931;47.286;18.756;2023-04-28T01:37:59;101252.75;;;1.45;81.19
79463;BME280;68931;47.286;18.756;2023-04-28T01:38:30;101250.19;;;1.43;80.68
79463;BME280;68931;47.286;18.756;2023-04-28T01:39:04;101226.19;;;1.29;81.48
79463;BME280;68931;47.286;18.756;2023-04-28T01:39:35;101233.03;;;1.33;81.28
79463;BME280;68931;47.286;18.756;2023-04-28T01:40:06;101241.63;;;1.37;81.21
79463;BME280;68931;47.286;18.756;2023-04-28T01:40:37;101252.84;;;1.34;81.07
79463;BME280;68931;47.286;18.756;2023-04-28T01:41:11;101256.28;;;1.33;81.25
79463;BME280;68931;47.286;18.756;2023-04-28T01:41:44;101234.81;;;1.25;80.81
79463;BME280;68931;47.286;18.756;2023-04-28T01:42:15;101251.13;;;1.35;81.45
79463;BME280;68931;47.286;18.756;2023-04-28T01:42:46;101246.81;;;1.34;81.50
79463;BME280;68931;47.286;18.756;2023-04-28T01:43:16;101254.56;;;1.34;81.20
79463;BME280;68931;47.286;18.756;2023-04-28T01:43:47;101213.41;;;1.09;81.21
79463;BME280;68931;47.286;18.756;2023-04-28T01:44:21;101248.56;;;1.30;81.27
79463;BME280;68931;47.286;18.756;2023-04-28T01:44:52;101245.13;;;1.28;81.65
79463;BME280;68931;47.286;18.756;2023-04-28T01:45:23;101263.22;;;1.30;82.07
79463;BME280;68931;47.286;18.756;2023-04-28T01:45:53;101243.47;;;1.20;81.50
79463;BME280;68931;47.286;18.756;2023-04-28T01:46:24;101254.63;;;1.28;81.77
79463;BME280;68931;47.286;18.756;2023-04-28T01:46:55;101252.88;;;1.30;81.71
79463;BME280;68931;47.286;18.756;2023-04-28T01:47:25;101251.16;;;1.29;81.10
79463;BME280;68931;47.286;18.756;2023-04-28T01:47:56;101254.59;;;1.31;81.12
79463;BME280;68931;47.286;18.756;2023-04-28T01:48:27;101248.59;;;1.27;81.45
79463;BME280;68931;47.286;18.756;2023-04-28T01:48:58;101248.59;;;1.27;81.22
79463;BME280;68931;47.286;18.756;2023-04-28T01:49:30;101240.91;;;1.20;81.41
79463;BME280;68931;47.286;18.756;2023-04-28T01:50:00;101252.03;;;1.28;81.53
79463;BME280;68931;47.286;18.756;2023-04-28T01:50:31;101255.47;;;1.30;81.24
79463;BME280;68931;47.286;18.756;2023-04-28T01:51:05;101260.63;;;1.30;81.64
79463;BME280;68931;47.286;18.756;2023-04-28T01:51:35;101255.47;;;1.30;81.44
79463;BME280;68931;47.286;18.756;2023-04-28T01:52:06;101255.47;;;1.31;81.19
79463;BME280;68931;47.286;18.756;2023-04-28T01:52:37;101237.44;;;1.19;81.12
79463;BME280;68931;47.286;18.756;2023-04-28T01:53:07;101247.75;;;1.24;81.26
79463;BME280;68931;47.286;18.756;2023-04-28T01:53:38;101262.34;;;1.31;81.14
79463;BME280;68931;47.286;18.756;2023-04-28T01:54:09;101254.63;;;1.29;81.62
79463;BME280;68931;47.286;18.756;2023-04-28T01:54:49;101247.78;;;1.21;81.31
79463;BME280;68931;47.286;18.756;2023-04-28T01:55:20;101252.94;;;1.21;80.87
79463;BME280;68931;47.286;18.756;2023-04-28T01:55:51;101259.78;;;1.26;81.66
79463;BME280;68931;47.286;18.756;2023-04-28T01:56:22;101254.63;;;1.23;81.41
79463;BME280;68931;47.286;18.756;2023-04-28T01:56:53;101258.06;;;1.25;81.50
79463;BME280;68931;47.286;18.756;2023-04-28T01:57:26;101256.34;;;1.24;81.22
79463;BME280;68931;47.286;18.756;2023-04-28T01:57:58;101249.53;;;1.16;81.17
79463;BME280;68931;47.286;18.756;2023-04-28T01:58:29;101253.78;;;1.24;81.21
79463;BME280;68931;47.286;18.756;2023-04-28T01:58:59;101246.06;;;1.17;81.64
79463;BME280;68931;47.286;18.756;2023-04-28T01:59:33;101217.78;;;0.98;81.11
79463;BME280;68931;47.286;18.756;2023-04-28T02:00:04;101265.81;;;1.25;81.36
79463;BME280;68931;47.286;18.756;2023-04-28T02:00:36;101266.72;;;1.23;81.30
79463;BME280;68931;47.286;18.756;2023-04-28T02:01:09;101251.28;;;1.13;81.14
79463;BME280;68931;47.286;18.756;2023-04-28T02:01:40;101262.38;;;1.25;81.49
79463;BME280;68931;47.286;18.756;2023-04-28T02:02:11;101263.28;;;1.22;81.48
79463;BME280;68931;47.286;18.756;2023-04-28T02:02:42;101269.25;;;1.27;81.77
79463;BME280;68931;47.286;18.756;2023-04-28T02:03:12;101259.00;;;1.18;81.17
79463;BME280;68931;47.286;18.756;2023-04-28T02:03:43;101225.50;;;1.03;81.33
79463;BME280;68931;47.286;18.756;2023-04-28T02:04:14;101257.22;;;1.23;81.56
79463;BME280;68931;47.286;18.756;2023-04-28T02:04:44;101261.50;;;1.26;81.73
79463;BME280;68931;47.286;18.756;2023-04-28T02:05:15;101270.97;;;1.28;81.78
79463;BME280;68931;47.286;18.756;2023-04-28T02:05:51;101264.09;;;1.24;81.56
79463;BME280;68931;47.286;18.756;2023-04-28T02:06:22;101261.50;;;1.30;81.50
79463;BME280;68931;47.286;18.756;2023-04-28T02:06:53;101268.38;;;1.31;82.02
79463;BME280;68931;47.286;18.756;2023-04-28T02:07:24;101266.69;;;1.29;81.46
79463;BME280;68931;47.286;18.756;2023-04-28T02:07:57;101264.09;;;1.29;81.51
79463;BME280;68931;47.286;18.756;2023-04-28T02:08:27;101265.81;;;1.28;81.23
79463;BME280;68931;47.286;18.756;2023-04-28T02:08:58;101272.72;;;1.28;81.39
79463;BME280;68931;47.286;18.756;2023-04-28T02:09:29;101263.22;;;1.27;81.68
79463;BME280;68931;47.286;18.756;2023-04-28T02:09:59;101258.97;;;1.21;81.50
79463;BME280;68931;47.286;18.756;2023-04-28T02:10:30;101262.38;;;1.26;81.33
79463;BME280;68931;47.286;18.756;2023-04-28T02:11:01;101265.84;;;1.24;81.36
79463;BME280;68931;47.286;18.756;2023-04-28T02:11:33;101227.25;;;1.01;81.72
79463;BME280;68931;47.286;18.756;2023-04-28T02:12:04;101228.97;;;0.99;81.10
79463;BME280;68931;47.286;18.756;2023-04-28T02:12:35;101253.00;;;1.13;81.51
79463;BME280;68931;47.286;18.756;2023-04-28T02:13:05;101249.56;;;1.11;81.78
79463;BME280;68931;47.286;18.756;2023-04-28T02:13:36;101258.19;;;1.13;82.15
79463;BME280;68931;47.286;18.756;2023-04-28T02:14:07;101265.03;;;1.17;82.18
79463;BME280;68931;47.286;18.756;2023-04-28T02:14:37;101268.47;;;1.18;82.15
79463;BME280;68931;47.286;18.756;2023-04-28T02:15:09;101230.69;;;0.97;82.05
79463;BME280;68931;47.286;18.756;2023-04-28T02:15:40;101270.19;;;1.20;82.34
79463;BME280;68931;47.286;18.756;2023-04-28T02:16:12;101259.84;;;1.16;82.37
79463;BME280;68931;47.286;18.756;2023-04-28T02:16:45;101259.91;;;1.12;82.15
79463;BME280;68931;47.286;18.756;2023-04-28T02:17:16;101252.16;;;1.09;82.55
79463;BME280;68931;47.286;18.756;2023-04-28T02:17:50;101270.19;;;1.16;82.14
79463;BME280;68931;47.286;18.756;2023-04-28T02:18:20;101265.03;;;1.16;82.79
79463;BME280;68931;47.286;18.756;2023-04-28T02:18:51;101256.47;;;1.12;82.79
79463;BME280;68931;47.286;18.756;2023-04-28T02:19:25;101258.19;;;1.10;82.53
79463;BME280;68931;47.286;18.756;2023-04-28T02:19:56;101261.56;;;1.17;82.65
79463;BME280;68931;47.286;18.756;2023-04-28T02:20:27;101253.88;;;1.09;82.65
79463;BME280;68931;47.286;18.756;2023-04-28T02:20:57;101253.03;;;1.10;82.68
79463;BME280;68931;47.286;18.756;2023-04-28T02:21:28;101246.13;;;1.07;82.00
79463;BME280;68931;47.286;18.756;2023-04-28T02:22:00;101259.03;;;1.12;81.88
79463;BME280;68931;47.286;18.756;2023-04-28T02:22:30;101268.53;;;1.07;81.93
79463;BME280;68931;47.286;18.756;2023-04-28T02:23:01;101260.81;;;1.02;81.71
79463;BME280;68931;47.286;18.756;2023-04-28T02:23:32;101266.81;;;1.06;82.46
79463;BME280;68931;47.286;18.756;2023-04-28T02:24:03;101254.81;;;0.97;82.61
79463;BME280;68931;47.286;18.756;2023-04-28T02:24:35;101262.53;;;1.05;82.67
79463;BME280;68931;47.286;18.756;2023-04-28T02:25:32;101270.25;;;1.06;82.36
79463;BME280;68931;47.286;18.756;2023-04-28T02:26:02;101270.28;;;1.05;82.28
79463;BME280;68931;47.286;18.756;2023-04-28T02:26:33;101257.38;;;0.99;81.86
79463;BME280;68931;47.286;18.756;2023-04-28T02:27:07;101267.75;;;0.96;81.78
79463;BME280;68931;47.286;18.756;2023-04-28T02:27:56;101254.84;;;0.91;82.17
79463;BME280;68931;47.286;18.756;2023-04-28T02:28:27;101266.84;;;0.98;82.40
79463;BME280;68931;47.286;18.756;2023-04-28T02:29:13;101266.88;;;0.97;81.77
79463;BME280;68931;47.286;18.756;2023-04-28T02:29:46;101276.34;;;0.98;82.13
79463;BME280;68931;47.286;18.756;2023-04-28T02:30:17;101270.34;;;0.96;82.34
79463;BME280;68931;47.286;18.756;2023-04-28T02:30:48;101275.47;;;0.99;81.84
79463;BME280;68931;47.286;18.756;2023-04-28T02:31:19;101260.88;;;0.93;81.97
79463;BME280;68931;47.286;18.756;2023-04-28T02:31:57;101276.34;;;0.99;81.62
79463;BME280;68931;47.286;18.756;2023-04-28T02:32:43;101271.19;;;0.96;82.31
79463;BME280;68931;47.286;18.756;2023-04-28T02:33:14;101260.88;;;0.89;81.71
79463;BME280;68931;47.286;18.756;2023-04-28T02:33:44;101272.88;;;0.97;82.15
79463;BME280;68931;47.286;18.756;2023-04-28T02:34:15;101255.72;;;0.95;81.98
79463;BME280;68931;47.286;18.756;2023-04-28T02:34:46;101272.03;;;0.98;82.05
79463;BME280;68931;47.286;18.756;2023-04-28T02:35:22;101269.44;;;0.98;82.06
79463;BME280;68931;47.286;18.756;2023-04-28T02:35:59;101262.59;;;0.91;81.70
79463;BME280;68931;47.286;18.756;2023-04-28T02:36:30;101260.88;;;0.89;82.03
79463;BME280;68931;47.286;18.756;2023-04-28T02:37:04;101267.75;;;0.94;81.63
79463;BME280;68931;47.286;18.756;2023-04-28T02:37:35;101268.63;;;0.95;82.24
79463;BME280;68931;47.286;18.756;2023-04-28T02:38:06;101260.03;;;0.91;82.23
79463;BME280;68931;47.286;18.756;2023-04-28T02:38:36;101277.22;;;0.95;82.45
79463;BME280;68931;47.286;18.756;2023-04-28T02:39:07;101270.34;;;0.94;82.17
79463;BME280;68931;47.286;18.756;2023-04-28T02:39:38;101275.50;;;0.93;82.27
79463;BME280;68931;47.286;18.756;2023-04-28T02:40:10;101277.22;;;0.95;82.17
79463;BME280;68931;47.286;18.756;2023-04-28T02:40:40;101273.78;;;0.95;81.95
79463;BME280;68931;47.286;18.756;2023-04-28T02:41:14;101261.78;;;0.86;82.18
79463;BME280;68931;47.286;18.756;2023-04-28T02:41:45;101273.78;;;0.93;82.51
79463;BME280;68931;47.286;18.756;2023-04-28T02:42:15;101270.34;;;0.91;82.06
79463;BME280;68931;47.286;18.756;2023-04-28T02:42:49;101278.97;;;0.92;81.88
79463;BME280;68931;47.286;18.756;2023-04-28T02:43:19;101269.50;;;0.91;82.53
79463;BME280;68931;47.286;18.756;2023-04-28T02:43:53;101266.94;;;0.85;82.33
79463;BME280;68931;47.286;18.756;2023-04-28T02:44:24;101269.53;;;0.88;82.27
79463;BME280;68931;47.286;18.756;2023-04-28T02:45:05;101272.97;;;0.87;82.68
79463;BME280;68931;47.286;18.756;2023-04-28T02:45:35;101272.13;;;0.88;82.24
79463;BME280;68931;47.286;18.756;2023-04-28T02:46:06;101272.13;;;0.88;82.71
79463;BME280;68931;47.286;18.756;2023-04-28T02:46:37;101257.50;;;0.81;82.42
79463;BME280;68931;47.286;18.756;2023-04-28T02:47:08;101238.63;;;0.69;83.05